Time;durP1;ratioP1;P1;durP2;ratioP2;P2;SDS_P1;SDS_P2;PMS_P1;PMS_P2;Temp;Humidity;BMP_temperature;BMP_pressure;BME280_temperature;BME280_humidity;BME280_pressure;Samples;Min_cycle;Max_cycle;Signal;HPM_P1;HPM_P2
2021/05/08 04:00:04;;;;;;;18.07;16.57;;;3.40;99.90;;;;;;5795148;23;20505;-68
2021/05/08 04:02:30;;;;;;;18.07;16.43;;;3.40;99.90;;;;;;5004063;28;20445;-68
2021/05/08 04:04:57;;;;;;;18.47;17.10;;;3.50;99.90;;;;;;5011076;28;20504;-68
2021/05/08 04:07:23;;;;;;;20.10;18.60;;;3.40;99.90;;;;;;5010710;28;20445;-67
2021/05/08 04:09:49;;;;;;;19.73;18.03;;;3.50;99.90;;;;;;5010491;28;20528;-69
2021/05/08 04:12:15;;;;;;;17.50;16.07;;;3.50;99.90;;;;;;5010509;28;20452;-69
2021/05/08 04:14:41;;;;;;;15.80;14.70;;;3.50;99.90;;;;;;5010397;28;20860;-68
2021/05/08 04:17:08;;;;;;;17.30;15.73;;;3.50;99.90;;;;;;5010535;28;20449;-69
2021/05/08 04:19:34;;;;;;;18.10;16.77;;;3.50;99.90;;;;;;5009916;28;20443;-67
2021/05/08 04:22:01;;;;;;;17.73;15.97;;;3.50;99.90;;;;;;5010334;28;21157;-68
2021/05/08 04:24:27;;;;;;;17.10;15.80;;;3.50;99.90;;;;;;5007684;28;20446;-67
2021/05/08 04:26:53;;;;;;;18.73;17.27;;;3.50;99.90;;;;;;5010524;28;20465;-67
2021/05/08 04:29:20;;;;;;;16.17;15.13;;;3.50;99.90;;;;;;5009984;28;20488;-67
2021/05/08 04:31:46;;;;;;;17.53;16.43;;;3.50;99.90;;;;;;5010194;28;21150;-68
2021/05/08 04:34:13;;;;;;;18.47;17.07;;;3.60;99.90;;;;;;5010149;28;20440;-67
2021/05/08 04:36:39;;;;;;;15.83;14.83;;;3.60;99.90;;;;;;5010960;28;20456;-68
2021/05/08 04:39:05;;;;;;;16.93;15.60;;;3.60;99.90;;;;;;5011201;28;20460;-68
2021/05/08 04:41:32;;;;;;;18.23;16.73;;;3.80;99.90;;;;;;5011193;28;20799;-67
2021/05/08 04:43:58;;;;;;;17.70;16.40;;;4.10;99.90;;;;;;5011431;28;20867;-69
2021/05/08 04:46:24;;;;;;;18.33;16.83;;;4.40;99.90;;;;;;5011443;28;20469;-69
2021/05/08 04:48:53;;;;;;;18.90;17.33;;;4.60;99.90;;;;;;5010948;28;20528;-69
2021/05/08 04:51:20;;;;;;;18.53;17.30;;;4.70;99.90;;;;;;5008969;28;20897;-69
2021/05/08 04:53:48;;;;;;;19.63;17.97;;;4.80;99.90;;;;;;5010853;28;21302;-70
2021/05/08 04:56:14;;;;;;;19.07;17.50;;;4.90;99.90;;;;;;5010715;28;20535;-70
2021/05/08 04:58:40;;;;;;;17.50;16.20;;;5.00;99.90;;;;;;5010848;28;20474;-70
2021/05/08 05:01:07;;;;;;;18.47;16.57;;;5.20;99.90;;;;;;5010640;28;20991;-70
2021/05/08 05:03:33;;;;;;;17.93;16.70;;;5.40;99.90;;;;;;5010847;28;20456;-70
2021/05/08 05:05:59;;;;;;;15.77;14.70;;;5.60;99.90;;;;;;5010681;28;20454;-69
2021/05/08 05:08:26;;;;;;;16.63;15.53;;;5.70;99.90;;;;;;5010767;28;20462;-70
2021/05/08 05:10:54;;;;;;;17.40;16.10;;;5.80;99.90;;;;;;5010621;28;21019;-70
2021/05/08 05:13:21;;;;;;;17.87;16.27;;;5.90;99.90;;;;;;5010559;28;20457;-69
2021/05/08 05:15:47;;;;;;;16.43;15.10;;;5.90;99.90;;;;;;5010512;28;20463;-69
2021/05/08 05:18:13;;;;;;;17.33;15.77;;;5.90;99.90;;;;;;5010583;28;20447;-69
2021/05/08 05:20:40;;;;;;;14.83;13.87;;;6.20;99.90;;;;;;5010608;28;20455;-70
2021/05/08 05:23:06;;;;;;;15.97;14.87;;;6.60;99.90;;;;;;5010436;28;20482;-69
2021/05/08 05:25:33;;;;;;;17.47;15.87;;;6.90;99.90;;;;;;5010383;28;20466;-70
2021/05/08 05:27:59;;;;;;;15.00;14.10;;;7.10;99.90;;;;;;5010303;28;20927;-70
2021/05/08 05:30:26;;;;;;;14.57;13.53;;;7.30;99.90;;;;;;5010923;28;20489;-70
2021/05/08 05:32:53;;;;;;;16.07;14.67;;;7.30;99.90;;;;;;5014312;28;20457;-69
2021/05/08 05:35:19;;;;;;;14.70;13.80;;;7.30;99.90;;;;;;5014299;28;20450;-69
2021/05/08 05:37:45;;;;;;;15.27;14.30;;;7.50;99.90;;;;;;5014130;28;20948;-69
2021/05/08 05:40:12;;;;;;;15.40;14.40;;;7.80;99.90;;;;;;5014397;28;20446;-70
2021/05/08 05:42:39;;;;;;;14.50;13.60;;;7.80;99.90;;;;;;5014399;28;20846;-69
2021/05/08 05:45:06;;;;;;;16.00;15.00;;;7.80;99.90;;;;;;5014093;28;20452;-69
2021/05/08 05:47:33;;;;;;;16.00;14.80;;;7.90;99.90;;;;;;5014079;28;20465;-69
2021/05/08 05:49:59;;;;;;;16.50;15.40;;;8.00;99.90;;;;;;5013820;28;20512;-69
2021/05/08 05:52:25;;;;;;;15.57;14.57;;;8.20;99.90;;;;;;5014130;28;20450;-69
2021/05/08 05:54:52;;;;;;;15.23;14.30;;;8.60;99.90;;;;;;5013986;28;20460;-68
2021/05/08 05:57:19;;;;;;;13.43;12.53;;;8.80;99.90;;;;;;5013826;28;20460;-69
2021/05/08 05:59:46;;;;;;;14.60;13.50;;;9.00;99.90;;;;;;5013522;28;20536;-69
2021/05/08 06:02:12;;;;;;;14.97;13.67;;;8.90;99.90;;;;;;5013872;28;20458;-69
2021/05/08 06:04:39;;;;;;;13.70;12.70;;;9.00;99.90;;;;;;5013910;28;20964;-69
2021/05/08 06:07:05;;;;;;;15.40;14.30;;;9.20;99.90;;;;;;5013642;28;21018;-69
2021/05/08 06:09:31;;;;;;;14.53;13.63;;;9.10;99.90;;;;;;5013602;28;20918;-69
2021/05/08 06:11:59;;;;;;;13.73;12.80;;;8.80;99.90;;;;;;5013604;28;20469;-69
2021/05/08 06:14:26;;;;;;;14.20;13.20;;;8.90;99.90;;;;;;5013858;28;20450;-69
2021/05/08 06:16:55;;;;;;;14.07;13.10;;;9.00;99.90;;;;;;5013639;28;20472;-69
2021/05/08 06:19:21;;;;;;;14.80;13.70;;;9.10;99.90;;;;;;5013519;28;20822;-70
2021/05/08 06:21:47;;;;;;;15.20;14.10;;;9.50;99.90;;;;;;5013642;28;20446;-69
2021/05/08 06:24:13;;;;;;;14.53;13.63;;;9.90;99.90;;;;;;5013506;28;20465;-70
2021/05/08 06:26:39;;;;;;;15.47;14.47;;;10.40;99.90;;;;;;5013343;28;20885;-68
2021/05/08 06:29:06;;;;;;;15.23;14.30;;;10.70;99.80;;;;;;5013143;28;20490;-69
2021/05/08 06:31:32;;;;;;;15.17;14.10;;;10.70;99.70;;;;;;5013338;28;20703;-69
2021/05/08 06:33:59;;;;;;;16.93;15.63;;;10.50;99.60;;;;;;5013311;28;20862;-69
2021/05/08 06:36:25;;;;;;;15.40;14.40;;;10.50;99.90;;;;;;5013365;28;20872;-69
2021/05/08 06:38:51;;;;;;;15.20;14.00;;;10.60;99.20;;;;;;5013204;28;20453;-69
2021/05/08 06:41:18;;;;;;;16.07;15.07;;;10.60;99.00;;;;;;5012667;28;20513;-69
2021/05/08 06:43:44;;;;;;;14.77;13.80;;;10.60;98.60;;;;;;5013033;28;20596;-69
2021/05/08 06:46:11;;;;;;;14.37;13.37;;;10.90;98.10;;;;;;5013219;28;20458;-70
2021/05/08 06:48:37;;;;;;;14.57;13.67;;;11.20;97.60;;;;;;5012764;28;20527;-69
2021/05/08 06:51:06;;;;;;;14.30;13.40;;;11.30;96.80;;;;;;5012997;28;20603;-69
2021/05/08 06:53:32;;;;;;;16.43;15.23;;;11.30;96.90;;;;;;5012854;28;20453;-69
2021/05/08 06:55:59;;;;;;;13.60;12.90;;;11.50;96.60;;;;;;5012858;28;20455;-69
2021/05/08 06:58:25;;;;;;;14.63;13.83;;;11.70;96.00;;;;;;5012831;28;20473;-69
2021/05/08 07:00:51;;;;;;;17.10;16.00;;;12.10;95.60;;;;;;5012535;28;20484;-68
2021/05/08 07:03:17;;;;;;;14.10;13.27;;;12.40;95.00;;;;;;5012662;28;21063;-70
2021/05/08 07:05:43;;;;;;;14.20;13.23;;;12.90;94.10;;;;;;5012484;28;20453;-70
2021/05/08 07:08:11;;;;;;;13.47;12.77;;;13.10;93.50;;;;;;5012683;28;20450;-71
2021/05/08 07:10:47;;;;;;;13.60;12.90;;;13.00;92.90;;;;;;5012591;28;20482;-71
2021/05/08 07:13:14;;;;;;;14.47;13.53;;;13.10;93.20;;;;;;5012617;28;20790;-68
2021/05/08 07:15:41;;;;;;;13.93;13.00;;;13.20;92.90;;;;;;5012622;28;20445;-71
2021/05/08 07:18:08;;;;;;;14.03;13.23;;;13.00;92.90;;;;;;5012703;28;20480;-69
2021/05/08 07:20:36;;;;;;;13.63;12.83;;;13.00;92.80;;;;;;5012553;28;20492;-69
2021/05/08 07:23:04;;;;;;;14.03;13.13;;;13.40;92.20;;;;;;5012417;28;20963;-68
2021/05/08 07:25:31;;;;;;;13.50;12.90;;;13.80;91.80;;;;;;5012338;28;20450;-69
2021/05/08 07:28:08;;;;;;;12.97;12.17;;;14.70;88.80;;;;;;5012302;28;20958;-69
2021/05/08 07:30:35;;;;;;;13.53;12.73;;;14.80;87.00;;;;;;5012193;28;20485;-69
2021/05/08 07:33:01;;;;;;;11.90;11.30;;;15.10;87.30;;;;;;5012213;28;20991;-69
2021/05/08 07:35:27;;;;;;;13.53;12.83;;;15.30;86.10;;;;;;5012277;28;21009;-69
2021/05/08 07:37:54;;;;;;;11.83;11.23;;;15.60;85.80;;;;;;5012210;28;20481;-69
2021/05/08 07:40:20;;;;;;;13.73;13.00;;;15.40;83.70;;;;;;5011994;28;20948;-69
2021/05/08 07:42:47;;;;;;;13.27;12.57;;;15.10;84.80;;;;;;5012152;28;20840;-69
2021/05/08 07:45:14;;;;;;;12.50;11.77;;;15.10;84.80;;;;;;5012048;28;20450;-69
2021/05/08 07:47:40;;;;;;;12.90;12.30;;;15.60;84.70;;;;;;5010466;28;20461;-69
2021/05/08 07:50:07;;;;;;;12.30;11.70;;;15.60;84.30;;;;;;5012090;28;21025;-69
2021/05/08 07:52:34;;;;;;;12.60;12.00;;;16.10;84.40;;;;;;5011706;28;20955;-70
2021/05/08 07:55:00;;;;;;;13.77;12.97;;;16.90;81.70;;;;;;5011236;28;20915;-69
2021/05/08 07:57:26;;;;;;;12.77;12.07;;;16.90;79.50;;;;;;5012041;28;20446;-69
2021/05/08 07:59:53;;;;;;;12.30;11.40;;;16.80;79.20;;;;;;5011660;28;20486;-69
2021/05/08 08:02:19;;;;;;;12.00;11.47;;;16.60;79.50;;;;;;5011804;28;20449;-69
2021/05/08 08:04:45;;;;;;;12.50;11.80;;;16.80;80.20;;;;;;5011602;28;20442;-69
2021/05/08 08:07:12;;;;;;;13.27;12.57;;;16.90;79.80;;;;;;5011693;28;20450;-69
2021/05/08 08:09:38;;;;;;;12.00;11.27;;;17.20;78.00;;;;;;5011715;28;20846;-69
2021/05/08 08:12:05;;;;;;;12.37;11.73;;;17.30;77.70;;;;;;5009831;28;20454;-69
2021/05/08 08:14:31;;;;;;;12.97;12.37;;;17.60;76.50;;;;;;5011315;28;20649;-70
2021/05/08 08:16:58;;;;;;;13.43;12.77;;;18.20;75.10;;;;;;5011437;28;20940;-69
2021/05/08 08:19:24;;;;;;;13.53;12.73;;;18.00;74.80;;;;;;5011447;28;20453;-69
2021/05/08 08:21:50;;;;;;;13.60;12.60;;;18.50;76.10;;;;;;5011178;28;20465;-69
2021/05/08 08:24:16;;;;;;;11.93;11.23;;;18.80;72.60;;;;;;5011215;28;20454;-68
2021/05/08 08:26:42;;;;;;;12.23;11.63;;;18.80;72.40;;;;;;5011273;28;20453;-70
2021/05/08 08:29:09;;;;;;;13.07;12.37;;;19.00;71.20;;;;;;5011148;28;20461;-69
2021/05/08 08:31:35;;;;;;;12.83;11.93;;;18.60;72.20;;;;;;5011082;28;20449;-70
2021/05/08 08:34:02;;;;;;;11.67;11.07;;;18.60;72.60;;;;;;5010956;28;20527;-70
2021/05/08 08:36:28;;;;;;;12.00;11.50;;;18.90;72.80;;;;;;5011067;28;20504;-70
2021/05/08 08:38:54;;;;;;;12.10;11.40;;;19.30;70.90;;;;;;5011328;28;20997;-70
2021/05/08 08:41:21;;;;;;;12.47;11.87;;;20.10;68.20;;;;;;5011064;28;20462;-69
2021/05/08 08:43:48;;;;;;;11.70;11.20;;;21.10;64.60;;;;;;5011089;28;20951;-69
2021/05/08 08:46:17;;;;;;;12.37;11.80;;;20.60;63.50;;;;;;5010990;28;20515;-69
2021/05/08 08:48:43;;;;;;;11.87;11.37;;;20.40;65.10;;;;;;5011048;28;20465;-69
2021/05/08 08:51:10;;;;;;;12.67;11.87;;;20.50;64.60;;;;;;5011143;28;20489;-69
2021/05/08 08:53:37;;;;;;;13.00;12.40;;;21.30;62.90;;;;;;5010938;28;20445;-71
2021/05/08 08:56:05;;;;;;;12.33;11.83;;;20.70;61.80;;;;;;5010865;28;20767;-71
2021/05/08 08:58:34;;;;;;;11.87;11.17;;;20.70;62.20;;;;;;5010791;28;20466;-69
2021/05/08 09:01:01;;;;;;;12.00;11.40;;;21.00;60.30;;;;;;5010582;28;20473;-70
2021/05/08 09:03:28;;;;;;;12.17;11.57;;;21.10;60.00;;;;;;5010879;28;20458;-71
2021/05/08 09:05:54;;;;;;;11.20;10.67;;;20.60;60.60;;;;;;5010793;28;20964;-72
2021/05/08 09:08:22;;;;;;;11.50;11.00;;;20.60;61.70;;;;;;5010691;28;20450;-71
2021/05/08 09:10:49;;;;;;;11.37;10.90;;;20.90;60.90;;;;;;5010790;28;20490;-70
2021/05/08 09:13:18;;;;;;;12.00;11.40;;;20.10;60.20;;;;;;5009322;28;20462;-71
2021/05/08 09:15:46;;;;;;;13.00;11.20;;;19.10;63.00;;;;;;5011009;28;20449;-71
2021/05/08 09:18:33;;;;;;;10.43;9.83;;;19.00;60.80;;;;;;5011081;28;20449;-71
2021/05/08 09:21:00;;;;;;;11.03;10.53;;;19.10;61.20;;;;;;5010653;28;20540;-68
2021/05/08 09:23:31;;;;;;;11.83;11.20;;;19.40;61.50;;;;;;5010918;28;20508;-69
2021/05/08 09:25:59;;;;;;;11.07;10.40;;;19.70;60.10;;;;;;5010984;28;20504;-69
2021/05/08 09:28:26;;;;;;;10.87;10.23;;;20.40;58.70;;;;;;5010703;28;20450;-70
2021/05/08 09:30:53;;;;;;;11.10;10.57;;;20.70;57.70;;;;;;5010356;28;20485;-69
2021/05/08 09:33:23;;;;;;;10.60;10.20;;;19.90;57.90;;;;;;5010272;28;20508;-69
2021/05/08 09:36:03;;;;;;;10.40;10.10;;;19.80;57.20;;;;;;5010237;28;20954;-69
2021/05/08 09:38:32;;;;;;;11.73;11.13;;;19.50;57.20;;;;;;5010351;28;20457;-69
2021/05/08 09:40:59;;;;;;;11.20;10.60;;;19.90;57.20;;;;;;5010289;28;21067;-69
2021/05/08 09:43:25;;;;;;;10.80;10.10;;;20.30;57.20;;;;;;5010448;28;20453;-68
2021/05/08 09:45:53;;;;;;;10.10;9.50;;;20.60;55.90;;;;;;5010512;28;20450;-68
2021/05/08 09:48:24;;;;;;;11.20;10.70;;;20.90;55.40;;;;;;5010276;28;20811;-68
2021/05/08 09:50:50;;;;;;;10.33;9.93;;;20.60;55.20;;;;;;5010089;28;21100;-69
2021/05/08 09:53:31;;;;;;;11.20;10.60;;;20.40;55.10;;;;;;5010281;28;20450;-68
2021/05/08 09:55:58;;;;;;;10.90;10.40;;;19.60;55.90;;;;;;5010359;28;20507;-68
2021/05/08 09:58:25;;;;;;;10.80;10.03;;;19.20;56.40;;;;;;5010179;28;20469;-68
2021/05/08 10:00:52;;;;;;;11.90;11.30;;;19.10;57.60;;;;;;5009924;28;20474;-68
2021/05/08 10:03:20;;;;;;;10.50;10.10;;;19.90;57.00;;;;;;5010059;28;20461;-69
2021/05/08 10:06:07;;;;;;;10.93;10.50;;;20.50;57.00;;;;;;5010091;28;20520;-69
2021/05/08 10:08:34;;;;;;;10.70;10.27;;;21.40;54.90;;;;;;5010047;28;20445;-69
2021/05/08 10:11:02;;;;;;;11.53;11.03;;;22.40;52.30;;;;;;5009960;28;20482;-70
2021/05/08 10:13:31;;;;;;;11.70;10.70;;;23.30;50.30;;;;;;5008177;28;20923;-70
2021/05/08 10:15:59;;;;;;;12.30;11.80;;;23.00;49.60;;;;;;5010019;28;20457;-70
2021/05/08 10:18:26;;;;;;;11.27;10.73;;;24.20;49.00;;;;;;5013666;28;20999;-70
2021/05/08 10:20:54;;;;;;;11.33;10.83;;;24.10;47.50;;;;;;5013834;28;20490;-70
2021/05/08 10:23:27;;;;;;;11.20;10.80;;;23.70;47.50;;;;;;5013610;28;20457;-70
2021/05/08 10:25:55;;;;;;;10.70;10.30;;;22.00;48.80;;;;;;5013733;28;20452;-70
2021/05/08 10:28:21;;;;;;;11.03;10.53;;;21.10;50.50;;;;;;5011775;28;20449;-69
2021/05/08 10:30:48;;;;;;;11.00;10.60;;;20.60;52.40;;;;;;5013388;28;20442;-70
2021/05/08 10:33:16;;;;;;;10.97;10.57;;;19.80;52.60;;;;;;5013474;28;20516;-70
2021/05/08 10:35:43;;;;;;;10.97;10.40;;;19.70;54.00;;;;;;5013630;28;20457;-70
2021/05/08 10:38:18;;;;;;;12.40;11.70;;;19.50;53.80;;;;;;5013368;28;20454;-70
2021/05/08 10:40:52;;;;;;;12.27;11.77;;;20.10;54.10;;;;;;5013271;28;20488;-70
2021/05/08 10:43:42;;;;;;;12.23;11.73;;;20.70;52.20;;;;;;5013204;28;20758;-70
2021/05/08 10:46:09;;;;;;;12.37;11.90;;;21.50;52.00;;;;;;5013469;28;20454;-70
2021/05/08 10:48:35;;;;;;;11.63;11.23;;;23.00;51.40;;;;;;5013278;28;20453;-71
2021/05/08 10:51:03;;;;;;;11.93;11.43;;;24.90;48.10;;;;;;5011109;28;20458;-69
2021/05/08 10:53:41;;;;;;;12.77;12.27;;;26.20;44.70;;;;;;5013024;28;20458;-69
2021/05/08 10:56:09;;;;;;;13.10;12.50;;;27.30;42.40;;;;;;5013057;28;20453;-69
2021/05/08 10:58:40;;;;;;;12.23;11.80;;;26.20;42.50;;;;;;5011312;28;20983;-72
2021/05/08 11:01:09;;;;;;;11.93;11.47;;;24.50;43.80;;;;;;5012704;28;20494;-71
2021/05/08 11:04:03;;;;;;;11.30;10.93;;;23.40;46.40;;;;;;5012839;28;20817;-68
2021/05/08 11:06:29;;;;;;;11.30;10.90;;;23.40;45.70;;;;;;5012809;28;20454;-69
2021/05/08 11:08:55;;;;;;;11.87;11.47;;;23.60;45.00;;;;;;5012925;28;20446;-70
2021/05/08 11:11:24;;;;;;;11.80;11.17;;;21.80;45.50;;;;;;5010968;28;20456;-70
2021/05/08 11:14:00;;;;;;;11.10;10.70;;;21.30;48.00;;;;;;5012473;28;20556;-70
2021/05/08 11:16:27;;;;;;;10.80;10.30;;;21.10;49.00;;;;;;5012852;28;20457;-70
2021/05/08 11:18:55;;;;;;;11.00;10.60;;;21.10;49.20;;;;;;5012747;28;20453;-70
2021/05/08 11:21:41;;;;;;;11.73;11.23;;;20.50;48.80;;;;;;5012371;28;20576;-68
2021/05/08 11:24:10;;;;;;;10.93;10.53;;;20.80;48.80;;;;;;5012651;28;20457;-70
2021/05/08 11:26:38;;;;;;;10.63;10.10;;;20.80;49.50;;;;;;5012493;28;20460;-67
2021/05/08 11:29:07;;;;;;;11.00;10.57;;;22.00;47.90;;;;;;5012270;28;20450;-70
2021/05/08 11:31:35;;;;;;;11.00;10.60;;;22.30;45.70;;;;;;5012311;28;20454;-70
2021/05/08 11:34:11;;;;;;;11.40;10.90;;;22.30;46.50;;;;;;5012221;28;20492;-70
2021/05/08 11:36:49;;;;;;;11.17;10.87;;;22.00;46.60;;;;;;5012270;28;20450;-70
2021/05/08 11:39:17;;;;;;;10.30;9.90;;;21.60;44.80;;;;;;5012121;28;20775;-70
2021/05/08 11:41:45;;;;;;;10.80;10.40;;;21.50;45.10;;;;;;5011891;28;20454;-70
2021/05/08 11:44:20;;;;;;;10.87;10.47;;;21.80;44.00;;;;;;5012085;28;20936;-69
2021/05/08 11:46:58;;;;;;;11.37;10.97;;;22.40;44.10;;;;;;5011741;28;20529;-71
2021/05/08 11:49:29;;;;;;;10.80;10.40;;;22.10;42.80;;;;;;5012014;28;20465;-70
2021/05/08 11:51:56;;;;;;;10.90;10.50;;;21.50;42.90;;;;;;5012014;28;20454;-71
2021/05/08 11:54:22;;;;;;;10.90;10.60;;;21.40;43.10;;;;;;5012044;28;20442;-71
2021/05/08 11:56:49;;;;;;;11.50;10.90;;;22.20;42.60;;;;;;5011643;28;21035;-71
2021/05/08 11:59:15;;;;;;;10.80;10.30;;;22.40;41.80;;;;;;5011392;28;20532;-71
2021/05/08 12:01:42;;;;;;;11.17;10.77;;;22.90;42.50;;;;;;5009636;28;20498;-69
2021/05/08 12:04:08;;;;;;;11.50;11.00;;;23.40;41.60;;;;;;5011749;28;20462;-71
2021/05/08 12:06:35;;;;;;;10.63;10.23;;;23.10;40.50;;;;;;5011479;28;20458;-71
2021/05/08 12:09:09;;;;;;;10.63;10.23;;;22.70;41.80;;;;;;5011447;28;20457;-70
2021/05/08 12:11:35;;;;;;;11.40;10.57;;;22.30;42.10;;;;;;5011306;28;20457;-71
2021/05/08 12:14:12;;;;;;;10.80;10.30;;;22.30;42.10;;;;;;5011387;28;20453;-70
2021/05/08 12:16:39;;;;;;;10.53;10.03;;;23.00;41.50;;;;;;5011634;28;20466;-69
2021/05/08 12:19:06;;;;;;;10.80;10.40;;;24.10;40.40;;;;;;5011175;28;20481;-69
2021/05/08 12:21:33;;;;;;;10.83;10.53;;;25.00;40.40;;;;;;5010886;28;20512;-69
2021/05/08 12:23:59;;;;;;;11.37;10.97;;;25.70;39.00;;;;;;5011047;28;20963;-69
2021/05/08 12:26:25;;;;;;;10.90;10.50;;;25.70;38.20;;;;;;5011178;28;20531;-68
2021/05/08 12:28:56;;;;;;;11.67;11.17;;;24.70;37.70;;;;;;5009449;28;20457;-71
2021/05/08 12:31:28;;;;;;;9.97;9.63;;;24.10;38.80;;;;;;5011106;28;20503;-68
2021/05/08 12:33:56;;;;;;;10.30;9.90;;;24.60;39.00;;;;;;5011260;28;20515;-71
2021/05/08 12:36:25;;;;;;;9.70;9.40;;;23.80;38.90;;;;;;5011050;28;20460;-71
2021/05/08 12:38:53;;;;;;;10.40;10.10;;;24.30;38.90;;;;;;5010598;28;20461;-68
2021/05/08 12:41:28;;;;;;;10.77;10.37;;;25.10;39.20;;;;;;5010497;28;20517;-70
2021/05/08 12:44:08;;;;;;;10.00;9.70;;;25.00;40.20;;;;;;5010900;28;20446;-70
2021/05/08 12:46:59;;;;;;;10.63;10.23;;;24.00;41.40;;;;;;5010614;28;20457;-69
2021/05/08 12:49:26;;;;;;;10.43;9.93;;;24.30;40.40;;;;;;5010476;28;20457;-71
2021/05/08 12:51:54;;;;;;;10.57;10.20;;;24.30;40.60;;;;;;5010653;28;20450;-71
2021/05/08 12:54:22;;;;;;;10.33;9.93;;;25.00;39.80;;;;;;5010747;28;20795;-70
2021/05/08 12:56:50;;;;;;;10.07;9.77;;;24.70;39.90;;;;;;5010780;28;20458;-69
2021/05/08 12:59:27;;;;;;;11.03;10.57;;;24.70;41.10;;;;;;5010358;28;21277;-69
2021/05/08 13:02:11;;;;;;;10.70;10.30;;;23.40;41.30;;;;;;5010516;28;20449;-69
2021/05/08 13:04:38;;;;;;;10.40;10.00;;;22.80;42.40;;;;;;5010197;28;20442;-69
2021/05/08 13:07:26;;;;;;;11.43;10.97;;;23.00;43.10;;;;;;5008335;28;20453;-69
2021/05/08 13:10:13;;;;;;;10.80;10.40;;;23.20;42.60;;;;;;5010486;28;20541;-69
2021/05/08 13:12:39;;;;;;;10.90;10.60;;;23.30;42.90;;;;;;5010441;28;20445;-69
2021/05/08 13:15:09;;;;;;;10.90;10.53;;;23.40;42.40;;;;;;5010560;28;20446;-70
2021/05/08 13:17:35;;;;;;;11.20;10.80;;;23.60;43.20;;;;;;5010319;28;20454;-69
2021/05/08 13:20:01;;;;;;;10.97;10.60;;;23.60;43.50;;;;;;5010069;28;20493;-68
2021/05/08 13:22:31;;;;;;;11.53;10.93;;;24.30;42.80;;;;;;5010477;28;20496;-69
2021/05/08 13:24:57;;;;;;;11.37;10.80;;;25.00;41.80;;;;;;5010395;28;20528;-69
2021/05/08 13:27:24;;;;;;;10.60;10.30;;;25.10;41.10;;;;;;5010290;28;20442;-68
2021/05/08 13:29:50;;;;;;;10.03;9.70;;;24.60;41.40;;;;;;5010225;28;20442;-69
2021/05/08 13:32:16;;;;;;;11.00;10.60;;;23.90;42.60;;;;;;5010423;28;20461;-68
2021/05/08 13:34:42;;;;;;;10.87;10.47;;;22.80;44.10;;;;;;5010148;28;20453;-68
2021/05/08 13:37:09;;;;;;;9.80;9.40;;;21.80;45.60;;;;;;5010428;28;20460;-69
2021/05/08 13:39:36;;;;;;;11.10;10.60;;;21.40;46.40;;;;;;5010084;28;20473;-69
2021/05/08 13:42:02;;;;;;;10.80;10.30;;;21.30;47.50;;;;;;5010255;28;20794;-68
2021/05/08 13:44:28;;;;;;;9.80;9.50;;;21.20;47.60;;;;;;5010002;28;20457;-70
2021/05/08 13:46:54;;;;;;;9.07;8.67;;;21.10;47.80;;;;;;5010380;28;20445;-69
2021/05/08 13:49:21;;;;;;;10.30;9.80;;;21.40;47.50;;;;;;5010258;28;20453;-69
2021/05/08 13:51:47;;;;;;;10.50;10.10;;;21.50;48.10;;;;;;5011352;28;20955;-69
2021/05/08 13:54:13;;;;;;;11.03;10.63;;;21.90;47.00;;;;;;5014156;28;20449;-70
2021/05/08 13:56:40;;;;;;;10.03;9.53;;;21.90;47.40;;;;;;5014143;28;20457;-69
2021/05/08 13:59:06;;;;;;;9.80;9.40;;;21.60;47.00;;;;;;5013935;28;20466;-68
2021/05/08 14:01:32;;;;;;;10.23;9.90;;;22.40;47.40;;;;;;5013767;28;21098;-70
2021/05/08 14:03:58;;;;;;;10.27;9.87;;;24.00;46.40;;;;;;5013866;28;20453;-69
2021/05/08 14:06:25;;;;;;;11.10;10.70;;;25.60;44.30;;;;;;5014099;28;20511;-68
2021/05/08 14:08:51;;;;;;;10.87;10.47;;;25.60;42.60;;;;;;5013740;28;20469;-71
2021/05/08 14:11:17;;;;;;;10.57;10.20;;;24.90;43.30;;;;;;5013802;28;20448;-69
2021/05/08 14:13:44;;;;;;;11.03;10.53;;;25.30;43.20;;;;;;5013587;28;20465;-68
2021/05/08 14:16:10;;;;;;;11.27;10.73;;;25.40;43.00;;;;;;5013960;28;20453;-70
2021/05/08 14:18:36;;;;;;;10.43;10.03;;;25.00;42.10;;;;;;5013715;28;20445;-70
2021/05/08 14:21:02;;;;;;;9.83;9.43;;;24.00;42.30;;;;;;5013331;28;20481;-70
2021/05/08 14:23:28;;;;;;;10.40;10.00;;;23.90;42.90;;;;;;5013417;28;20472;-70
2021/05/08 14:25:55;;;;;;;10.87;10.47;;;24.40;43.30;;;;;;5013643;28;20460;-70
2021/05/08 14:28:21;;;;;;;10.47;10.17;;;23.70;43.80;;;;;;5013559;28;20457;-70
2021/05/08 14:30:48;;;;;;;10.83;10.40;;;23.70;43.50;;;;;;5013484;28;20442;-70
2021/05/08 14:33:14;;;;;;;10.83;10.43;;;23.40;44.40;;;;;;5013295;28;20450;-70
2021/05/08 14:35:41;;;;;;;10.70;10.30;;;22.80;44.10;;;;;;5013443;28;20457;-70
2021/05/08 14:38:07;;;;;;;10.03;9.63;;;22.20;45.60;;;;;;5013525;28;20473;-70
2021/05/08 14:40:34;;;;;;;10.10;9.80;;;21.60;46.60;;;;;;5013145;28;20859;-70
2021/05/08 14:43:00;;;;;;;10.20;9.60;;;21.50;47.00;;;;;;5013132;28;20449;-70
2021/05/08 14:45:26;;;;;;;10.57;10.07;;;21.20;47.70;;;;;;5013227;28;20827;-70
2021/05/08 14:47:54;;;;;;;10.90;10.40;;;21.30;47.70;;;;;;5013236;28;20450;-71
2021/05/08 14:50:21;;;;;;;10.60;10.30;;;21.50;48.00;;;;;;5012711;28;20454;-70
2021/05/08 14:52:47;;;;;;;10.77;10.27;;;21.40;47.70;;;;;;5013328;28;20454;-70
2021/05/08 14:55:14;;;;;;;11.90;11.40;;;21.30;48.10;;;;;;5012775;28;20940;-70
2021/05/08 14:57:40;;;;;;;11.10;10.27;;;21.30;49.30;;;;;;5013015;28;20975;-70
2021/05/08 15:00:07;;;;;;;10.63;10.27;;;21.50;49.70;;;;;;5012424;28;20493;-70
2021/05/08 15:02:34;;;;;;;11.00;10.60;;;21.80;48.30;;;;;;5012378;28;20457;-70
2021/05/08 15:05:01;;;;;;;10.90;10.50;;;21.70;48.00;;;;;;5012646;28;20871;-72
2021/05/08 15:07:27;;;;;;;10.53;10.23;;;21.70;48.70;;;;;;5012667;28;20457;-70
2021/05/08 15:09:53;;;;;;;10.93;10.53;;;21.70;49.30;;;;;;5012694;28;20450;-70
2021/05/08 15:12:19;;;;;;;10.80;10.40;;;21.20;49.80;;;;;;5012422;28;20830;-70
2021/05/08 15:14:46;;;;;;;10.80;10.50;;;21.20;50.40;;;;;;5012460;28;20454;-70
2021/05/08 15:17:12;;;;;;;11.40;11.00;;;21.10;50.00;;;;;;5012184;28;20454;-70
2021/05/08 15:19:38;;;;;;;10.93;10.53;;;21.20;50.00;;;;;;5012349;28;20988;-70
2021/05/08 15:22:05;;;;;;;10.50;10.00;;;21.20;50.70;;;;;;5012229;28;20450;-70
2021/05/08 15:24:31;;;;;;;10.90;10.50;;;21.10;50.40;;;;;;5012056;28;20454;-70
2021/05/08 15:26:59;;;;;;;9.93;9.63;;;20.90;49.80;;;;;;5012236;28;20469;-70
2021/05/08 15:29:25;;;;;;;11.27;10.97;;;20.80;50.50;;;;;;5011999;28;20908;-70
2021/05/08 15:31:52;;;;;;;11.60;11.23;;;20.60;50.80;;;;;;5012012;28;20445;-70
2021/05/08 15:34:18;;;;;;;10.37;9.97;;;20.50;51.30;;;;;;5012125;28;20453;-70
2021/05/08 15:36:44;;;;;;;10.67;10.20;;;20.50;51.60;;;;;;5011960;28;20450;-70
2021/05/08 15:39:13;;;;;;;11.67;11.17;;;20.60;51.80;;;;;;5012076;28;20450;-70
2021/05/08 15:41:39;;;;;;;10.50;10.20;;;20.50;51.40;;;;;;5012014;28;20485;-70
2021/05/08 15:44:06;;;;;;;11.70;11.20;;;20.40;51.50;;;;;;5011993;28;20458;-70
2021/05/08 15:46:34;;;;;;;10.93;10.53;;;20.60;51.90;;;;;;5011877;28;20450;-70
2021/05/08 15:49:00;;;;;;;10.27;9.97;;;20.50;50.80;;;;;;5011790;28;21011;-70
2021/05/08 15:51:27;;;;;;;10.73;10.23;;;20.50;51.20;;;;;;5011969;28;20446;-70
2021/05/08 15:53:53;;;;;;;11.30;10.80;;;20.70;51.10;;;;;;5011803;28;20508;-70
2021/05/08 15:56:21;;;;;;;11.10;10.70;;;20.70;51.60;;;;;;5011569;28;20477;-70
2021/05/08 15:58:47;;;;;;;9.53;9.23;;;20.90;51.40;;;;;;5011443;28;20536;-70
2021/05/08 16:01:14;;;;;;;11.40;11.00;;;21.10;50.90;;;;;;5011245;28;20497;-71
2021/05/08 16:03:40;;;;;;;10.87;10.57;;;21.10;50.50;;;;;;5011737;28;20454;-70
2021/05/08 16:06:08;;;;;;;10.80;10.50;;;21.00;51.10;;;;;;5011525;28;20450;-70
2021/05/08 16:08:34;;;;;;;10.80;10.40;;;21.00;51.00;;;;;;5011324;28;20458;-70
2021/05/08 16:11:00;;;;;;;12.03;11.63;;;21.10;51.60;;;;;;5011607;28;20453;-70
2021/05/08 16:13:27;;;;;;;9.60;9.30;;;21.30;51.40;;;;;;5011724;28;20460;-70
2021/05/08 16:15:54;;;;;;;10.90;10.60;;;21.30;50.70;;;;;;5011102;28;20948;-70
2021/05/08 16:18:20;;;;;;;10.43;10.03;;;21.20;51.30;;;;;;5011333;28;20462;-70
2021/05/08 16:20:46;;;;;;;11.00;10.70;;;21.20;51.50;;;;;;5011277;28;20490;-70
2021/05/08 16:23:12;;;;;;;10.20;9.90;;;21.30;52.20;;;;;;5011601;28;20457;-69
2021/05/08 16:25:38;;;;;;;10.60;10.30;;;21.40;51.70;;;;;;5011587;28;20461;-70
2021/05/08 16:28:05;;;;;;;9.70;9.30;;;21.20;51.40;;;;;;5011240;28;20512;-70
2021/05/08 16:30:32;;;;;;;9.83;9.53;;;21.20;52.00;;;;;;5011295;28;20855;-70
2021/05/08 16:32:58;;;;;;;10.03;9.73;;;21.10;51.70;;;;;;5011388;28;20454;-70